Time;durP1;ratioP1;P1;durP2;ratioP2;P2;SDS_P1;SDS_P2;PMS_P1;PMS_P2;Temp;Humidity;BMP_temperature;BMP_pressure;BME280_temperature;BME280_humidity;BME280_pressure;Samples;Min_cycle;Max_cycle;Signal;HPM_P1;HPM_P2
2021/06/30 00:01:03;;;;;;;2.15;2.00;;;18.10;99.90;;;;;;5023286;28;20214;-79
2021/06/30 00:03:28;;;;;;;2.65;2.30;;;18.10;99.90;;;;;;5021793;28;20183;-80
2021/06/30 00:05:54;;;;;;;4.63;2.25;;;18.10;99.90;;;;;;5023284;28;20176;-80
2021/06/30 00:08:19;;;;;;;5.15;2.50;;;18.00;99.90;;;;;;5016749;28;20269;-80
2021/06/30 00:10:46;;;;;;;2.95;2.03;;;18.00;99.90;;;;;;5016662;28;20673;-80
2021/06/30 00:13:11;;;;;;;4.65;3.38;;;17.90;99.90;;;;;;5021647;28;20203;-80
2021/06/30 00:15:39;;;;;;;1.92;1.83;;;18.10;99.90;;;;;;5019244;28;20180;-80
2021/06/30 00:18:05;;;;;;;6.43;3.38;;;18.20;99.90;;;;;;5019458;28;20207;-80
2021/06/30 00:20:31;;;;;;;3.55;2.97;;;18.20;99.90;;;;;;5020717;28;20262;-80
2021/06/30 00:22:56;;;;;;;13.13;3.65;;;18.20;99.90;;;;;;5020688;28;20689;-78
2021/06/30 00:25:22;;;;;;;3.67;2.92;;;18.30;99.90;;;;;;5021261;28;20183;-78
2021/06/30 00:27:49;;;;;;;2.83;2.63;;;18.20;99.90;;;;;;5020430;28;20565;-78
2021/06/30 00:30:16;;;;;;;2.80;2.58;;;18.10;99.90;;;;;;5020053;28;20190;-77
2021/06/30 00:32:42;;;;;;;3.85;2.55;;;18.10;99.90;;;;;;5020195;28;20377;-80
2021/06/30 00:35:08;;;;;;;3.85;2.40;;;18.20;99.90;;;;;;5020251;28;20241;-80
2021/06/30 00:37:34;;;;;;;4.10;2.72;;;18.20;99.90;;;;;;5019049;28;20207;-78
2021/06/30 00:39:59;;;;;;;3.22;2.85;;;18.10;99.90;;;;;;5017473;28;20198;-80
2021/06/30 00:42:29;;;;;;;6.25;3.20;;;18.10;99.90;;;;;;5019164;28;20221;-79
2021/06/30 00:44:55;;;;;;;5.30;2.80;;;18.00;99.90;;;;;;5020254;28;20183;-80
2021/06/30 00:47:21;;;;;;;3.15;2.83;;;17.90;99.90;;;;;;5021599;28;20214;-80
2021/06/30 00:49:47;;;;;;;3.22;2.92;;;18.10;99.90;;;;;;5020201;28;20244;-80
2021/06/30 00:52:13;;;;;;;4.40;2.92;;;18.10;99.90;;;;;;5026323;28;20191;-80
2021/06/30 00:54:39;;;;;;;5.55;2.92;;;18.10;99.90;;;;;;5017222;28;20322;-78
2021/06/30 00:57:05;;;;;;;3.10;2.80;;;18.20;99.90;;;;;;5017097;28;20203;-79
2021/06/30 00:59:30;;;;;;;3.33;2.60;;;18.10;99.90;;;;;;5019278;28;20191;-80
2021/06/30 01:01:57;;;;;;;4.07;3.00;;;18.20;99.90;;;;;;5033499;28;20227;-78
2021/06/30 01:04:23;;;;;;;2.97;2.70;;;18.20;99.90;;;;;;5021902;23;20240;-72
2021/06/30 01:06:49;;;;;;;4.45;2.83;;;18.30;99.90;;;;;;4996203;28;20194;-72
2021/06/30 01:09:16;;;;;;;4.75;3.05;;;18.20;99.90;;;;;;4991865;28;20894;-72
2021/06/30 01:11:42;;;;;;;3.78;2.78;;;18.20;99.90;;;;;;4994576;28;20275;-73
2021/06/30 01:14:07;;;;;;;5.93;3.50;;;18.30;99.90;;;;;;4997579;28;20207;-71
2021/06/30 01:16:33;;;;;;;2.85;2.55;;;18.30;99.90;;;;;;4996118;28;20558;-71
2021/06/30 01:18:59;;;;;;;4.80;2.58;;;18.30;99.90;;;;;;4994906;28;20282;-73
2021/06/30 01:21:25;;;;;;;4.50;3.40;;;18.40;99.90;;;;;;4996414;28;20694;-72
2021/06/30 01:23:51;;;;;;;3.28;2.95;;;18.40;99.90;;;;;;4997692;28;20703;-72
2021/06/30 01:26:17;;;;;;;4.72;2.67;;;18.40;99.90;;;;;;4997570;28;20309;-72
2021/06/30 01:28:42;;;;;;;3.35;2.30;;;18.40;99.90;;;;;;4994494;28;20278;-72
2021/06/30 01:31:08;;;;;;;2.80;2.60;;;18.50;99.90;;;;;;4989615;28;20187;-72
2021/06/30 01:33:35;;;;;;;4.72;3.33;;;18.50;99.90;;;;;;4993428;28;20191;-72
2021/06/30 01:36:01;;;;;;;3.33;3.03;;;18.50;99.90;;;;;;4997719;28;20194;-72
2021/06/30 01:38:30;;;;;;;2.60;2.40;;;18.60;99.90;;;;;;4995182;28;20186;-72
2021/06/30 01:40:57;;;;;;;4.10;2.60;;;18.60;99.90;;;;;;4993000;28;20206;-72
2021/06/30 01:43:23;;;;;;;7.13;2.35;;;18.60;99.90;;;;;;4993981;28;20184;-72
2021/06/30 01:45:51;;;;;;;2.97;2.30;;;18.50;99.90;;;;;;4992096;28;20293;-73
2021/06/30 01:48:17;;;;;;;2.40;2.20;;;18.50;99.90;;;;;;4996329;28;20203;-76
2021/06/30 01:50:43;;;;;;;3.17;2.20;;;18.50;99.90;;;;;;4996245;28;20286;-72
2021/06/30 01:53:09;;;;;;;2.75;2.50;;;18.50;99.90;;;;;;5003646;28;20726;-71
2021/06/30 01:55:35;;;;;;;2.33;2.03;;;18.50;99.90;;;;;;4999242;28;20179;-72
2021/06/30 01:58:01;;;;;;;2.33;2.10;;;18.50;99.90;;;;;;4999293;28;20272;-72
2021/06/30 02:00:27;;;;;;;2.67;1.80;;;18.60;99.90;;;;;;5000594;28;20326;-72
2021/06/30 02:02:53;;;;;;;1.50;1.40;;;18.60;99.90;;;;;;5000291;28;20203;-72
2021/06/30 02:05:21;;;;;;;4.55;1.80;;;18.60;99.90;;;;;;4998640;28;20248;-72
2021/06/30 02:07:51;;;;;;;1.88;1.50;;;18.60;99.90;;;;;;4993528;28;20659;-72
2021/06/30 02:10:19;;;;;;;2.50;1.58;;;18.60;99.90;;;;;;5000836;28;20634;-72
2021/06/30 02:12:45;;;;;;;3.53;1.63;;;18.60;99.90;;;;;;5002427;28;20187;-72
2021/06/30 02:15:14;;;;;;;4.05;2.00;;;18.60;99.90;;;;;;4999893;28;20184;-71
2021/06/30 02:17:40;;;;;;;2.88;1.60;;;18.60;99.90;;;;;;4994378;28;20282;-73
2021/06/30 02:20:08;;;;;;;4.43;1.50;;;18.70;99.90;;;;;;4999660;28;20629;-72
2021/06/30 02:22:37;;;;;;;1.50;1.40;;;18.70;99.90;;;;;;4999898;28;20734;-72
2021/06/30 02:25:04;;;;;;;1.48;1.38;;;18.70;99.90;;;;;;4995869;28;20176;-72
2021/06/30 02:27:29;;;;;;;1.40;1.30;;;18.60;99.90;;;;;;4999154;28;20204;-72
2021/06/30 02:29:56;;;;;;;1.40;1.30;;;18.60;99.90;;;;;;5000988;28;20208;-73
2021/06/30 02:32:21;;;;;;;1.63;1.20;;;18.60;99.90;;;;;;5001448;28;20284;-72
2021/06/30 02:34:47;;;;;;;2.30;1.02;;;18.70;99.90;;;;;;5000250;28;20634;-74
2021/06/30 02:37:13;;;;;;;1.10;1.00;;;18.70;99.90;;;;;;5000506;28;20194;-73
2021/06/30 02:39:38;;;;;;;2.53;1.33;;;18.60;99.90;;;;;;5000208;28;20211;-71
2021/06/30 02:42:04;;;;;;;0.77;0.75;;;18.50;99.90;;;;;;5006281;28;20233;-72
2021/06/30 02:44:30;;;;;;;0.52;0.52;;;18.50;99.90;;;;;;4996378;28;20561;-72
2021/06/30 02:46:55;;;;;;;0.82;0.80;;;18.50;99.90;;;;;;4997621;28;20189;-73
2021/06/30 02:49:21;;;;;;;1.55;0.60;;;18.50;99.90;;;;;;4999646;28;20670;-73
2021/06/30 02:51:47;;;;;;;2.15;0.80;;;18.50;99.90;;;;;;4995939;28;20195;-72
2021/06/30 02:54:12;;;;;;;2.92;1.00;;;18.50;99.90;;;;;;4999644;28;20615;-71
2021/06/30 02:56:39;;;;;;;0.90;0.90;;;18.50;99.90;;;;;;4997268;28;20264;-71
2021/06/30 02:59:05;;;;;;;1.05;0.95;;;18.50;99.90;;;;;;4999121;28;20577;-72
2021/06/30 03:01:31;;;;;;;0.80;0.80;;;18.50;99.90;;;;;;4997122;28;20204;-72
2021/06/30 03:03:56;;;;;;;4.32;1.35;;;18.40;99.90;;;;;;4998345;28;20214;-71
2021/06/30 03:06:22;;;;;;;1.17;1.10;;;18.40;99.90;;;;;;4997371;28;20191;-72
2021/06/30 03:08:49;;;;;;;0.75;0.75;;;18.50;99.90;;;;;;4997539;28;20557;-72
2021/06/30 03:11:15;;;;;;;2.50;0.80;;;18.40;99.90;;;;;;4998846;28;20194;-71
2021/06/30 03:13:41;;;;;;;1.08;0.98;;;18.40;99.90;;;;;;5001725;28;20192;-72
2021/06/30 03:16:06;;;;;;;1.00;0.90;;;18.40;99.90;;;;;;4999557;28;20184;-70
2021/06/30 03:18:32;;;;;;;1.10;1.00;;;18.40;99.90;;;;;;4996754;28;20195;-73
2021/06/30 03:20:57;;;;;;;2.65;0.90;;;18.40;99.90;;;;;;4995206;28;20230;-72
2021/06/30 03:23:23;;;;;;;0.90;0.90;;;18.40;99.90;;;;;;4999118;28;20195;-72
2021/06/30 03:25:49;;;;;;;1.00;0.90;;;18.40;99.90;;;;;;4998373;28;20186;-73
2021/06/30 03:28:14;;;;;;;2.45;1.40;;;18.40;99.90;;;;;;4997062;28;20192;-72
2021/06/30 03:30:41;;;;;;;3.83;1.55;;;18.30;99.90;;;;;;4992386;28;20331;-72
2021/06/30 03:33:07;;;;;;;1.85;1.23;;;18.40;99.90;;;;;;4997603;28;20183;-72
2021/06/30 03:35:32;;;;;;;1.90;1.00;;;18.40;99.90;;;;;;4992338;28;20557;-71
2021/06/30 03:37:58;;;;;;;1.90;1.30;;;18.40;99.90;;;;;;4993021;28;20196;-77
2021/06/30 03:40:24;;;;;;;0.82;0.82;;;18.30;99.90;;;;;;4994885;28;20261;-72
2021/06/30 03:42:50;;;;;;;1.10;1.02;;;18.40;99.90;;;;;;4993427;28;20706;-71
2021/06/30 03:45:15;;;;;;;1.02;0.93;;;18.30;99.90;;;;;;5002169;28;20286;-72
2021/06/30 03:47:41;;;;;;;1.20;1.10;;;18.30;99.90;;;;;;4991349;28;20216;-74
2021/06/30 03:50:07;;;;;;;1.20;0.88;;;18.30;99.90;;;;;;4995518;28;20254;-75
2021/06/30 03:52:33;;;;;;;2.08;1.05;;;18.20;99.90;;;;;;4992958;28;20176;-73
2021/06/30 03:54:59;;;;;;;1.02;0.80;;;18.30;99.90;;;;;;4996345;28;20196;-75
2021/06/30 03:57:25;;;;;;;0.80;0.80;;;18.30;99.90;;;;;;4991276;28;20334;-72
2021/06/30 03:59:51;;;;;;;2.45;0.77;;;18.30;99.90;;;;;;4994621;28;20219;-73
2021/06/30 04:02:17;;;;;;;1.38;1.17;;;18.40;99.90;;;;;;4994583;28;20250;-71
2021/06/30 04:04:43;;;;;;;0.93;0.82;;;18.40;99.90;;;;;;4997796;28;20223;-71
2021/06/30 04:07:08;;;;;;;0.82;0.82;;;18.20;99.90;;;;;;4990494;28;20694;-72
2021/06/30 04:09:34;;;;;;;1.88;1.00;;;18.20;99.90;;;;;;4996456;28;20287;-72
2021/06/30 04:12:00;;;;;;;1.23;0.80;;;18.20;99.90;;;;;;4995315;28;20184;-71
2021/06/30 04:14:25;;;;;;;0.90;0.90;;;18.30;99.90;;;;;;4996154;28;20228;-72
2021/06/30 04:16:51;;;;;;;2.60;1.10;;;18.20;99.90;;;;;;4989543;28;20226;-75
2021/06/30 04:19:16;;;;;;;1.90;1.20;;;18.40;99.90;;;;;;4993415;28;20204;-72
2021/06/30 04:21:42;;;;;;;0.93;0.93;;;18.40;99.90;;;;;;4994867;28;20682;-73
2021/06/30 04:24:08;;;;;;;1.08;0.98;;;18.40;99.90;;;;;;4994224;28;20211;-72
2021/06/30 04:26:35;;;;;;;1.05;0.90;;;18.40;99.90;;;;;;4994958;28;20639;-74
2021/06/30 04:29:01;;;;;;;0.70;0.70;;;18.40;99.90;;;;;;4996597;28;20210;-71
2021/06/30 04:31:27;;;;;;;2.33;0.90;;;18.50;99.90;;;;;;4990165;28;20191;-72
2021/06/30 04:33:52;;;;;;;1.02;0.63;;;18.40;99.90;;;;;;4994704;28;20643;-72
2021/06/30 04:36:18;;;;;;;0.98;0.90;;;18.40;99.90;;;;;;4992752;28;20194;-73
2021/06/30 04:38:44;;;;;;;1.00;0.90;;;18.40;99.90;;;;;;4989719;28;20698;-73
2021/06/30 04:41:11;;;;;;;0.75;0.52;;;18.40;99.90;;;;;;4996703;28;20219;-72
2021/06/30 04:43:37;;;;;;;3.22;0.85;;;18.40;99.90;;;;;;4995051;28;21094;-72
2021/06/30 04:46:03;;;;;;;1.08;0.80;;;18.40;99.90;;;;;;4990451;28;20189;-72
2021/06/30 04:48:28;;;;;;;0.75;0.70;;;18.40;99.90;;;;;;4992967;28;20558;-72
2021/06/30 04:50:54;;;;;;;0.80;0.80;;;18.40;99.90;;;;;;4996011;28;20271;-72
2021/06/30 04:53:21;;;;;;;0.73;0.73;;;18.40;99.90;;;;;;4993135;28;20662;-72
2021/06/30 04:55:47;;;;;;;0.98;0.93;;;18.40;99.90;;;;;;4993853;28;21271;-71
2021/06/30 04:58:13;;;;;;;0.70;0.70;;;18.50;99.90;;;;;;4997668;28;20322;-72
2021/06/30 05:00:38;;;;;;;0.70;0.70;;;18.50;99.90;;;;;;4994560;28;20231;-72
2021/06/30 05:03:04;;;;;;;0.90;0.90;;;18.40;99.90;;;;;;4990297;28;20198;-73
2021/06/30 05:05:30;;;;;;;0.95;0.88;;;18.40;99.90;;;;;;4995056;28;20195;-71
2021/06/30 05:07:55;;;;;;;2.10;1.42;;;18.50;99.90;;;;;;4996473;28;20249;-72
2021/06/30 05:10:21;;;;;;;1.67;0.85;;;18.50;99.90;;;;;;4996162;28;20665;-71
2021/06/30 05:12:47;;;;;;;1.20;0.80;;;18.50;99.90;;;;;;4992255;28;20306;-71
2021/06/30 05:15:13;;;;;;;0.70;0.70;;;18.50;99.90;;;;;;4992723;28;20634;-72
2021/06/30 05:17:39;;;;;;;0.77;0.77;;;18.60;99.90;;;;;;4991629;28;20188;-73
2021/06/30 05:20:05;;;;;;;0.80;0.75;;;18.60;99.90;;;;;;4994989;28;20206;-72
2021/06/30 05:22:31;;;;;;;1.30;1.02;;;18.60;99.90;;;;;;4997478;28;20242;-72
2021/06/30 05:24:57;;;;;;;1.73;1.02;;;18.60;99.90;;;;;;4991558;28;20223;-72
2021/06/30 05:27:22;;;;;;;1.40;1.05;;;18.60;99.90;;;;;;4990218;28;20593;-72
2021/06/30 05:29:48;;;;;;;1.65;1.25;;;18.60;99.90;;;;;;4996370;28;20200;-72
2021/06/30 05:32:14;;;;;;;2.13;1.52;;;18.60;99.90;;;;;;4994485;28;20218;-72
2021/06/30 05:34:40;;;;;;;2.22;0.88;;;18.70;99.90;;;;;;4994779;28;20192;-73
2021/06/30 05:37:06;;;;;;;1.85;1.45;;;18.70;99.90;;;;;;4994510;28;20195;-72
2021/06/30 05:39:32;;;;;;;1.08;0.98;;;18.70;99.90;;;;;;5017930;28;20207;-76
2021/06/30 05:41:57;;;;;;;1.13;1.02;;;18.70;99.90;;;;;;4991275;28;20204;-72
2021/06/30 05:44:23;;;;;;;1.10;1.00;;;18.80;99.90;;;;;;4995389;28;20518;-72
2021/06/30 05:46:49;;;;;;;1.38;1.15;;;18.80;99.90;;;;;;4989127;28;20184;-71
2021/06/30 05:49:16;;;;;;;1.70;1.25;;;18.80;99.90;;;;;;4991813;28;20659;-71
2021/06/30 05:51:42;;;;;;;1.33;1.23;;;18.80;99.90;;;;;;4993876;28;20195;-72
2021/06/30 05:54:11;;;;;;;1.35;1.25;;;18.80;99.90;;;;;;4991620;28;20564;-72
2021/06/30 05:56:38;;;;;;;1.30;1.20;;;18.80;99.90;;;;;;4994421;28;20192;-72
2021/06/30 05:59:04;;;;;;;1.48;1.38;;;18.90;99.90;;;;;;5002510;28;20573;-73
2021/06/30 06:01:29;;;;;;;1.58;1.48;;;18.90;99.90;;;;;;4990954;28;20220;-72
2021/06/30 06:03:55;;;;;;;1.50;1.40;;;18.80;99.90;;;;;;4994223;28;20207;-70
2021/06/30 06:06:21;;;;;;;1.85;1.70;;;18.80;99.90;;;;;;4995674;28;20180;-70
2021/06/30 06:08:46;;;;;;;2.67;1.80;;;18.90;99.90;;;;;;4994793;28;20250;-70
2021/06/30 06:11:12;;;;;;;2.65;1.80;;;18.90;99.90;;;;;;5002295;28;20310;-72
2021/06/30 06:13:44;;;;;;;2.75;1.70;;;18.90;99.90;;;;;;4994526;28;20549;-72
2021/06/30 06:16:16;;;;;;;3.00;1.40;;;19.00;99.90;;;;;;4997406;28;20720;-72
2021/06/30 06:18:42;;;;;;;2.00;1.80;;;18.90;99.90;;;;;;5000202;28;20551;-73
2021/06/30 06:21:08;;;;;;;2.33;1.90;;;18.90;99.90;;;;;;4997636;28;20572;-71
2021/06/30 06:23:33;;;;;;;2.67;1.60;;;18.80;99.90;;;;;;4996998;28;20184;-71
2021/06/30 06:25:59;;;;;;;3.33;2.05;;;19.00;99.90;;;;;;4988759;28;20651;-72
2021/06/30 06:28:30;;;;;;;1.70;1.60;;;19.00;99.90;;;;;;4992946;28;20195;-74
2021/06/30 06:30:56;;;;;;;2.00;1.50;;;19.20;99.90;;;;;;4993688;28;20558;-72
2021/06/30 06:33:21;;;;;;;5.72;1.52;;;19.10;99.90;;;;;;4992308;28;20234;-71
2021/06/30 06:35:47;;;;;;;1.33;1.10;;;19.00;99.90;;;;;;4987767;28;20180;-72
2021/06/30 06:38:14;;;;;;;1.35;1.25;;;18.90;99.90;;;;;;4996401;28;20202;-72
2021/06/30 06:40:40;;;;;;;1.17;1.08;;;18.90;99.90;;;;;;5002394;28;20207;-72
2021/06/30 06:43:10;;;;;;;0.85;0.80;;;18.80;99.90;;;;;;4992553;28;20663;-72
2021/06/30 06:45:36;;;;;;;1.48;0.82;;;18.80;99.90;;;;;;4997262;28;21046;-72
2021/06/30 06:48:02;;;;;;;1.10;1.00;;;19.00;99.90;;;;;;4994222;28;20758;-72
2021/06/30 06:50:29;;;;;;;1.10;1.00;;;19.10;99.90;;;;;;4996079;28;20220;-71
2021/06/30 06:52:55;;;;;;;1.08;1.00;;;19.10;99.90;;;;;;4996865;28;20192;-72
2021/06/30 06:55:22;;;;;;;1.40;1.30;;;19.10;99.90;;;;;;4997834;28;20177;-71
2021/06/30 06:57:48;;;;;;;1.60;1.50;;;19.10;99.90;;;;;;5000732;28;20188;-76
2021/06/30 07:00:14;;;;;;;1.30;1.20;;;19.20;99.90;;;;;;4999616;28;20207;-71
2021/06/30 07:02:40;;;;;;;1.63;1.30;;;19.10;99.90;;;;;;4998421;28;20212;-70
2021/06/30 07:05:06;;;;;;;1.30;1.17;;;19.00;99.90;;;;;;4997431;28;20195;-70
2021/06/30 07:07:37;;;;;;;1.98;1.63;;;18.90;99.90;;;;;;4998782;28;20212;-71
2021/06/30 07:10:03;;;;;;;3.20;1.42;;;18.80;99.90;;;;;;4996838;28;20207;-70
2021/06/30 07:12:29;;;;;;;1.80;1.45;;;18.80;99.90;;;;;;4999358;28;20195;-72
2021/06/30 07:14:56;;;;;;;1.75;1.38;;;18.60;99.90;;;;;;4996873;28;20203;-70
2021/06/30 07:17:22;;;;;;;2.60;1.30;;;18.60;99.90;;;;;;4996420;28;20198;-73
2021/06/30 07:19:48;;;;;;;2.22;1.90;;;18.60;99.90;;;;;;4994682;28;20212;-75
2021/06/30 07:22:13;;;;;;;1.42;1.17;;;18.40;99.90;;;;;;4995153;28;21142;-73
2021/06/30 07:24:39;;;;;;;2.42;1.38;;;18.30;99.90;;;;;;4999094;28;20267;-71
2021/06/30 07:27:05;;;;;;;1.75;1.30;;;18.20;99.90;;;;;;5005219;28;20184;-71
2021/06/30 07:29:30;;;;;;;1.60;1.50;;;18.10;99.90;;;;;;4997133;28;20230;-72
2021/06/30 07:31:56;;;;;;;1.60;1.30;;;18.20;99.90;;;;;;4998128;28;20215;-72
2021/06/30 07:34:22;;;;;;;1.13;1.00;;;18.30;99.90;;;;;;4996347;28;20211;-73
2021/06/30 07:36:47;;;;;;;1.25;1.15;;;18.30;99.90;;;;;;4996619;28;20667;-73
2021/06/30 07:39:13;;;;;;;1.10;0.90;;;18.30;99.90;;;;;;4998082;28;20239;-74
2021/06/30 07:41:39;;;;;;;1.30;1.20;;;18.30;99.90;;;;;;4995414;28;20203;-74
2021/06/30 07:44:05;;;;;;;1.23;1.10;;;18.30;99.90;;;;;;4996325;28;20274;-75
2021/06/30 07:46:31;;;;;;;1.17;1.08;;;18.30;99.90;;;;;;4995005;28;20305;-74
2021/06/30 07:48:56;;;;;;;1.42;1.13;;;18.30;99.90;;;;;;4996973;28;20286;-73
2021/06/30 07:51:22;;;;;;;1.33;1.08;;;18.30;99.90;;;;;;4991341;28;20203;-74
2021/06/30 07:53:49;;;;;;;0.95;0.70;;;18.30;99.90;;;;;;4996960;28;20195;-73
2021/06/30 07:56:14;;;;;;;0.77;0.73;;;18.30;99.90;;;;;;4991695;28;20940;-74
2021/06/30 07:58:40;;;;;;;0.95;0.88;;;18.30;99.90;;;;;;4993343;28;20192;-72
2021/06/30 08:01:06;;;;;;;2.78;1.40;;;18.30;99.90;;;;;;4992575;28;20215;-72
2021/06/30 08:03:32;;;;;;;1.38;1.13;;;18.20;99.90;;;;;;4997059;28;20211;-72
2021/06/30 08:05:57;;;;;;;1.35;1.10;;;18.00;99.90;;;;;;4992992;28;20177;-72
2021/06/30 08:08:23;;;;;;;1.92;1.13;;;17.90;99.90;;;;;;4993941;28;20192;-76
2021/06/30 08:10:49;;;;;;;3.15;1.70;;;17.90;99.90;;;;;;4995651;28;20600;-72
2021/06/30 08:13:14;;;;;;;1.23;1.05;;;17.90;99.90;;;;;;4993199;28;20691;-72
2021/06/30 08:15:40;;;;;;;2.42;1.60;;;17.90;99.90;;;;;;4995326;28;20561;-71
2021/06/30 08:18:06;;;;;;;2.63;1.70;;;17.80;99.90;;;;;;4996013;28;20184;-70
2021/06/30 08:20:31;;;;;;;3.08;1.75;;;17.80;99.90;;;;;;4996862;28;20228;-71
2021/06/30 08:22:57;;;;;;;2.75;1.27;;;17.80;99.90;;;;;;4994753;28;20192;-70
2021/06/30 08:25:24;;;;;;;1.67;1.35;;;17.70;99.90;;;;;;4998268;28;20555;-70
2021/06/30 08:27:50;;;;;;;3.15;1.80;;;17.60;99.90;;;;;;4989528;28;20184;-70
2021/06/30 08:30:16;;;;;;;2.78;1.73;;;17.60;99.90;;;;;;4999281;28;20211;-71
2021/06/30 08:32:43;;;;;;;3.47;2.15;;;17.70;99.90;;;;;;5001183;28;20183;-70
2021/06/30 08:35:10;;;;;;;2.25;1.92;;;17.70;99.90;;;;;;4997429;28;20576;-71
2021/06/30 08:37:44;;;;;;;3.28;2.30;;;17.60;99.90;;;;;;4999870;28;20195;-70
2021/06/30 08:40:11;;;;;;;3.60;1.85;;;17.60;99.90;;;;;;5000679;28;20660;-70
2021/06/30 08:42:40;;;;;;;1.80;1.52;;;17.50;99.90;;;;;;4999476;28;20319;-70
2021/06/30 08:45:07;;;;;;;2.65;1.98;;;17.50;99.90;;;;;;4999138;28;20659;-69
2021/06/30 08:47:37;;;;;;;3.05;2.20;;;17.50;99.90;;;;;;4998641;28;20184;-70
2021/06/30 08:50:05;;;;;;;3.67;2.40;;;17.50;99.90;;;;;;4998113;28;20204;-71
2021/06/30 08:52:33;;;;;;;3.17;2.25;;;17.40;99.90;;;;;;4996802;28;20188;-69
2021/06/30 08:55:01;;;;;;;4.60;1.88;;;17.40;99.90;;;;;;4998614;28;20274;-70
2021/06/30 08:57:28;;;;;;;3.38;2.53;;;17.40;99.90;;;;;;4999175;28;20245;-69
2021/06/30 08:59:55;;;;;;;3.63;2.22;;;17.40;99.90;;;;;;4999529;28;20290;-70
2021/06/30 09:02:21;;;;;;;2.72;2.17;;;17.30;99.90;;;;;;4991954;28;20212;-70
2021/06/30 09:04:47;;;;;;;2.22;1.92;;;17.20;99.90;;;;;;4996581;28;20191;-68
2021/06/30 09:07:12;;;;;;;2.85;2.05;;;17.30;99.90;;;;;;4992426;28;20195;-70
2021/06/30 09:09:40;;;;;;;2.38;2.05;;;17.30;99.90;;;;;;4997768;28;20624;-70
2021/06/30 09:12:06;;;;;;;3.08;2.30;;;17.40;99.90;;;;;;4998166;28;21245;-69
2021/06/30 09:14:40;;;;;;;2.75;1.92;;;17.40;99.90;;;;;;4998885;28;20209;-69
2021/06/30 09:17:26;;;;;;;4.13;2.63;;;17.40;99.90;;;;;;5003235;28;20198;-70
2021/06/30 09:19:56;;;;;;;2.83;2.10;;;17.50;99.90;;;;;;4996283;28;20706;-69
2021/06/30 09:22:28;;;;;;;2.65;2.22;;;17.50;99.90;;;;;;4994346;28;20215;-69
2021/06/30 09:24:56;;;;;;;3.25;2.10;;;17.60;99.90;;;;;;4997769;28;20168;-69
2021/06/30 09:27:45;;;;;;;3.00;2.13;;;17.60;99.90;;;;;;4997661;28;20624;-69
2021/06/30 09:30:15;;;;;;;3.50;2.30;;;17.50;99.90;;;;;;5004399;28;20217;-70
2021/06/30 09:33:15;;;;;;;2.45;1.70;;;17.60;99.90;;;;;;5000765;28;20191;-70
2021/06/30 09:36:15;;;;;;;2.55;1.90;;;17.60;99.90;;;;;;5000747;28;20183;-70
2021/06/30 09:38:44;;;;;;;3.22;2.17;;;17.60;99.90;;;;;;4998203;28;20219;-69
2021/06/30 09:41:31;;;;;;;3.17;2.30;;;17.70;99.90;;;;;;4997221;28;20200;-69
2021/06/30 09:44:23;;;;;;;2.55;2.25;;;17.70;99.90;;;;;;4992377;28;20266;-69
2021/06/30 09:46:53;;;;;;;4.00;2.35;;;17.70;99.90;;;;;;4994517;28;20200;-70
2021/06/30 09:49:20;;;;;;;3.50;2.08;;;17.80;99.90;;;;;;4994875;28;20219;-69
2021/06/30 09:52:01;;;;;;;1.92;1.73;;;17.90;99.90;;;;;;4996158;28;20187;-70
2021/06/30 09:54:30;;;;;;;2.72;2.03;;;17.90;99.90;;;;;;4994140;28;20192;-70
2021/06/30 09:57:06;;;;;;;3.55;2.38;;;18.00;99.90;;;;;;4996668;28;20720;-69
2021/06/30 10:22:39;;;;;;;2.38;2.00;;;18.50;99.90;;;;;;5873832;23;20668;-69
2021/06/30 10:25:06;;;;;;;3.50;2.38;;;18.50;99.90;;;;;;5018784;28;20187;-69
2021/06/30 10:27:32;;;;;;;2.22;1.98;;;18.60;99.90;;;;;;5013898;28;20197;-70
2021/06/30 10:29:59;;;;;;;2.67;2.15;;;18.60;99.90;;;;;;5007641;28;20843;-69
2021/06/30 10:32:26;;;;;;;3.05;2.28;;;18.50;99.90;;;;;;5016626;28;20175;-69
2021/06/30 10:34:57;;;;;;;2.78;2.42;;;18.60;99.90;;;;;;5020175;28;20591;-71
2021/06/30 10:37:28;;;;;;;3.88;2.88;;;18.60;99.90;;;;;;5014295;28;20199;-71
2021/06/30 10:39:55;;;;;;;4.18;2.53;;;18.60;99.90;;;;;;5005816;28;20202;-69
2021/06/30 10:42:30;;;;;;;3.72;2.40;;;18.60;99.90;;;;;;5006177;28;20221;-68
2021/06/30 10:44:59;;;;;;;3.92;2.70;;;18.60;99.90;;;;;;5012913;28;20171;-69
2021/06/30 10:47:29;;;;;;;3.38;2.35;;;18.70;99.90;;;;;;5005178;28;20178;-69
2021/06/30 10:50:19;;;;;;;3.20;2.60;;;18.60;99.90;;;;;;5006460;28;20314;-69
2021/06/30 10:52:47;;;;;;;6.35;3.35;;;18.60;99.90;;;;;;5011689;28;20183;-69
2021/06/30 10:55:33;;;;;;;5.22;3.65;;;18.50;99.90;;;;;;5015699;28;20180;-69
2021/06/30 10:58:11;;;;;;;2.90;2.40;;;18.50;99.90;;;;;;4998688;28;20217;-68
2021/06/30 11:00:37;;;;;;;3.80;2.80;;;18.40;99.90;;;;;;5013522;28;20210;-70
2021/06/30 11:03:40;;;;;;;4.13;2.80;;;18.50;99.90;;;;;;5013903;28;20210;-70
2021/06/30 11:06:17;;;;;;;3.80;2.72;;;18.50;99.90;;;;;;5011638;28;20194;-70
2021/06/30 11:08:53;;;;;;;4.88;3.20;;;18.50;99.90;;;;;;5016919;28;20592;-71
2021/06/30 11:11:37;;;;;;;4.20;3.03;;;18.50;99.90;;;;;;5016079;28;20587;-70
2021/06/30 11:14:10;;;;;;;3.45;2.70;;;18.40;99.90;;;;;;5015623;28;20191;-71
2021/06/30 11:16:48;;;;;;;3.58;2.97;;;18.40;99.90;;;;;;5013766;28;20279;-70
2021/06/30 11:19:17;;;;;;;5.22;2.88;;;18.30;99.90;;;;;;5018625;28;20202;-70
2021/06/30 11:21:50;;;;;;;4.75;3.17;;;18.40;99.90;;;;;;5018708;28;20199;-71
2021/06/30 11:24:41;;;;;;;3.78;2.72;;;18.50;99.90;;;;;;5017724;28;20215;-71
2021/06/30 11:27:07;;;;;;;4.22;2.92;;;18.60;99.90;;;;;;5018845;28;20747;-70
2021/06/30 11:32:08;;;;;;;3.53;2.63;;;18.50;99.90;;;;;;5014364;28;20229;-69
2021/06/30 11:34:40;;;;;;;3.40;2.38;;;18.60;99.90;;;;;;5016108;28;20179;-70
2021/06/30 11:37:06;;;;;;;3.25;2.75;;;18.70;99.90;;;;;;5018129;28;20792;-69
2021/06/30 11:39:32;;;;;;;3.38;2.90;;;18.70;99.90;;;;;;5016322;28;20211;-68
2021/06/30 11:41:59;;;;;;;3.65;2.72;;;18.90;99.90;;;;;;5015179;28;20436;-68
2021/06/30 11:44:35;;;;;;;2.97;2.50;;;19.10;99.90;;;;;;4997614;28;20698;-71
2021/06/30 11:47:03;;;;;;;3.53;2.88;;;19.20;99.90;;;;;;5016752;28;20191;-70
2021/06/30 11:49:29;;;;;;;3.75;2.60;;;19.40;99.90;;;;;;5017825;28;20556;-71
2021/06/30 11:52:02;;;;;;;4.57;3.33;;;19.50;99.90;;;;;;5008020;28;20195;-69
2021/06/30 11:54:28;;;;;;;4.22;3.38;;;19.50;99.90;;;;;;5015113;28;20176;-70
2021/06/30 11:56:55;;;;;;;4.65;3.20;;;19.50;99.90;;;;;;5012526;28;20202;-69
2021/06/30 11:59:23;;;;;;;2.92;2.45;;;19.70;99.90;;;;;;5014199;28;20905;-70
2021/06/30 12:01:50;;;;;;;5.32;3.20;;;19.70;99.90;;;;;;5015642;28;20215;-72
2021/06/30 12:04:21;;;;;;;4.63;2.97;;;19.80;99.90;;;;;;5013051;28;20274;-70
2021/06/30 12:06:49;;;;;;;4.70;2.90;;;19.90;99.90;;;;;;5013846;28;20215;-69
2021/06/30 12:09:23;;;;;;;3.30;2.95;;;19.90;99.90;;;;;;5011683;28;20203;-70
2021/06/30 12:11:55;;;;;;;3.55;3.13;;;20.00;99.90;;;;;;5013125;28;20253;-70
2021/06/30 12:14:29;;;;;;;8.60;2.80;;;20.10;99.90;;;;;;4993393;28;20191;-69
2021/06/30 12:17:02;;;;;;;6.55;3.22;;;20.20;99.90;;;;;;5008588;28;20198;-69
2021/06/30 12:19:40;;;;;;;3.92;3.30;;;20.20;99.90;;;;;;5012585;28;20199;-70
2021/06/30 12:22:41;;;;;;;3.72;2.58;;;20.10;99.90;;;;;;5013316;28;20203;-71
2021/06/30 12:25:17;;;;;;;4.25;2.97;;;20.10;99.90;;;;;;5014022;28;20249;-69
2021/06/30 12:27:46;;;;;;;4.10;3.08;;;20.30;99.90;;;;;;5012676;28;20183;-70
2021/06/30 12:30:18;;;;;;;4.38;3.15;;;20.30;99.90;;;;;;5011898;28;20203;-71
2021/06/30 12:32:47;;;;;;;3.50;2.83;;;20.10;99.90;;;;;;5014924;28;20230;-70
2021/06/30 12:35:16;;;;;;;3.72;2.53;;;20.20;99.90;;;;;;5014468;28;20622;-69
2021/06/30 12:37:44;;;;;;;3.58;2.67;;;20.00;99.90;;;;;;5010060;28;20205;-69
2021/06/30 12:40:16;;;;;;;3.78;2.72;;;19.90;99.90;;;;;;5011387;28;20269;-71
2021/06/30 12:43:04;;;;;;;3.97;3.10;;;19.80;99.90;;;;;;5013919;28;20747;-70
2021/06/30 12:45:39;;;;;;;3.97;3.20;;;19.90;99.90;;;;;;5014231;28;20643;-69
2021/06/30 12:48:28;;;;;;;5.68;3.80;;;19.80;99.90;;;;;;5009309;28;20213;-72
2021/06/30 12:50:55;;;;;;;4.15;3.10;;;19.80;99.90;;;;;;5010832;28;20214;-70
2021/06/30 12:53:28;;;;;;;2.80;2.50;;;19.60;99.90;;;;;;5009846;28;20211;-70
2021/06/30 12:55:55;;;;;;;2.63;1.98;;;19.60;99.90;;;;;;5009702;28;20195;-74
2021/06/30 12:58:23;;;;;;;3.85;3.08;;;19.40;99.90;;;;;;5009534;28;20191;-70
2021/06/30 13:01:00;;;;;;;3.05;2.45;;;19.50;99.90;;;;;;4996459;28;20662;-71
2021/06/30 13:03:26;;;;;;;4.22;2.60;;;19.60;99.90;;;;;;5013695;28;20171;-70
2021/06/30 13:05:53;;;;;;;3.05;2.53;;;19.70;99.90;;;;;;5010759;28;20187;-71
2021/06/30 13:08:38;;;;;;;2.72;2.17;;;19.80;99.90;;;;;;5014498;28;20596;-70
2021/06/30 13:11:16;;;;;;;3.75;2.20;;;19.80;99.90;;;;;;5015779;28;21167;-74
2021/06/30 13:14:05;;;;;;;2.47;2.10;;;19.70;99.90;;;;;;5015267;28;20190;-71
2021/06/30 13:16:46;;;;;;;3.63;2.97;;;19.70;99.90;;;;;;5014394;28;20186;-74
2021/06/30 13:19:12;;;;;;;2.65;2.40;;;19.50;99.90;;;;;;5012636;28;20214;-71